Nearby METAR Reports

 

KCRG - Jacksonvil/Craig, Florida, USA
Distance from station: S 4mi, 6km
Updated: Sat, 20-Apr-2024 2:53pm EDT
Few Clouds
Few Clouds
 Wind from calm
Wind: Calm
Temperature: 88°F , 31°C
Heat Index: 89°F , 32°C
Dew Point: 63°F , 17°C
Humidity: 43%
Barometer: 30.00 inHg , 1015.9 hPa
Clouds: Few Clouds
Visibility: 10 miles , 16 km
Cloud details: Few Clouds 6000 ft
2024/04/20 18:53 KCRG 201853Z 00000KT 10SM FEW060 31/17 A3000 RMK AO2 SLP159 T03060172
KNRB - Mayport Nas, Florida, USA
Distance from station: E 6mi, 10km
Updated: Sat, 20-Apr-2024 2:52pm EDT
Clear
Clear
 Wind from SE
Wind: SE 12 mph , 19 km/h
Temperature: 88°F , 31°C
Heat Index: 91°F , 33°C
Dew Point: 66°F , 19°C
Humidity: 49%
Barometer: 30.01 inHg , 1016.3 hPa
Clouds: Clear
Visibility: 10 miles , 16 km
2024/04/20 18:52 KNRB 201852Z AUTO 13010KT 10SM CLR 31/19 A3001 RMK AO2 SLP160 T03110194
 
KJAX - Jacksonville, Florida, USA
Distance from station: NW 13mi, 20km
Updated: Sat, 20-Apr-2024 2:56pm EDT
Mostly cloudy
Mostly cloudy
 Wind from varies
Wind: varies 3 mph , 6 km/h
Temperature: 90°F , 32°C
Heat Index: 92°F , 33°C
Dew Point: 64°F , 18°C
Humidity: 43%
Barometer: 29.99 inHg , 1015.6 hPa
Clouds: Mostly cloudy
Visibility: 10 miles , 16 km
Cloud details: Partly cloudy 5000 ft
Mostly cloudy 14000 ft
Mostly cloudy 25000 ft
2024/04/20 18:56 KJAX 201856Z VRB03KT 10SM SCT050 BKN140 BKN250 32/18 A2999 RMK AO2 SLP156 T03170183 $
KNIP - Jacksonville Nas, Florida, USA
Distance from station: SW 15mi, 24km
Updated: Sat, 20-Apr-2024 2:53pm EDT
Mostly cloudy
Mostly cloudy
 Wind from SE
Wind: SE 8 mph , 13 km/h
Temperature: 90°F , 32°C
Heat Index: 92°F , 33°C
Dew Point: 64°F , 18°C
Humidity: 43%
Barometer: 30.01 inHg , 1016.3 hPa
Clouds: Mostly cloudy
Visibility: 10 miles , 16 km
Cloud details: Partly cloudy 5000 ft
Partly cloudy 12000 ft
Mostly cloudy 25000 ft
2024/04/20 18:53 KNIP 201853Z 14007KT 10SM SCT050 SCT120 BKN250 32/18 A3001 RMK AO2 SLP156 T03170178
 
KFHB - Fernandina Beach, Florida, USA
Distance from station: N 16mi, 26km
Updated: Sat, 20-Apr-2024 3:35pm EDT
Partly cloudy
Partly cloudy
 Wind from SE
Wind: SE 10 mph , 17 km/h
Temperature: 81°F , 27°C
Heat Index: 84°F , 29°C
Dew Point: 68°F , 20°C
Humidity: 66%
Barometer: 29.99 inHg , 1015.6 hPa
Clouds: Partly cloudy
Visibility: 10 miles , 16 km
Cloud details: Partly cloudy 6500 ft
2024/04/20 19:35 KFHB 201935Z AUTO 14009KT 10SM SCT065 27/20 A2999 RMK AO2
KVQQ - Jacksonvil/Cecil, Florida, USA
Distance from station: WSW 25mi, 40km
Updated: Sat, 20-Apr-2024 2:50pm EDT
Partly cloudy
Partly cloudy
 Wind from WNW
Wind: WNW 7 mph , 11 km/h
Temperature: 93°F , 34°C
Dew Point: 59°F , 15°C
Humidity: 32%
Barometer: 30.01 inHg , 1016.3 hPa
Clouds: Partly cloudy
Visibility: 10 miles , 16 km
Cloud details: Partly cloudy 3600 ft
2024/04/20 18:50 KVQQ 201850Z 30006KT 10SM SCT036 34/15 A3001
 
KSGJ - St Augustine, Florida, USA
Distance from station: SSE 31mi, 51km
Updated: Sat, 20-Apr-2024 2:56pm EDT
Few Clouds
Few Clouds
 Wind from SE
Wind: SE 10 mph , 17 km/h
Temperature: 82°F , 28°C
Heat Index: 86°F , 30°C
Dew Point: 70°F , 21°C
Humidity: 66%
Barometer: 30.02 inHg , 1016.6 hPa
Clouds: Few Clouds
Visibility: 10 miles , 16 km
Cloud details: Few Clouds 5500 ft
2024/04/20 18:56 KSGJ 201856Z 13009KT 100V190 10SM FEW055 28/21 A3002 RMK AO2 SLP166 T02830206 PNO $
K42J - Keystone Heights, Florida, USA
Distance from station: SW 49mi, 79km
Updated: Sat, 20-Apr-2024 3:35pm EDT
Clear
Clear
 Wind from W
Wind: W 9 mph , 15 km/h
Temperature: 88°F , 31°C
Dew Point: 55°F , 13°C
Humidity: 33%
Barometer: 29.99 inHg , 1015.6 hPa
Clouds: Clear
Visibility: 10 miles , 16 km
2024/04/20 19:35 K42J 201935Z AUTO 28008KT 10SM CLR 31/13 A2999 RMK A01